Accueil
METAR-TAF:

METAR-TAF

Aéroports :

Aéroport de Ghardaïa - Noumérat - Moufdi Zakaria

Ghardaïa, Algérie

latitude: 32-23N, longitude: 003-49E, altitude: 450 m

Observation

Le bulletin a été fait il y a 31 minutes, à 10:00 UTC
Vent 14 kt de ouest
Température 43°C
Pression 1015 hPa
Visibilité: 8000 m
Quelques nuages à une hauteur de 4000 ft

METAR: DAUG 151000Z 27014KT 8000 FEW040 43/// Q1015

Heure: 11:31 (10:31 UTC)

Prévision

Le bulletin a été fait il y a 5 heures et 31 minutes, à 05:00 UTC
Prévision valable du 15 à 06 UTC au 16 à 06 UTC
Vent 2 kt de direction variable
Visibilité 10 km ou plus
pas de nuages en-dessous de 1500 mètres et pas de cumulonimbus.
Evoluant progressivement
du 15 à 08 UTC au 15 à 10 UTC
Vent 10 kt de ouest

TAF: DAUG 150500Z 1506/1606 VRB02KT CAVOK BECMG 1508/1510 26010KT

Observations et prévisions météorologiques de plus de 4000 aéroports (messages METAR et TAF).

Les stations disponibles sont représentées par des disques jaunes et rouges sur la carte.

Passer la souris dessus pour voir le nom de la station.

Cliquer dessus pour voir les observations et prévisions météorologiques.

Pour changer de carte: cliquez sur les boutons verts avec une croix noire pour zoomer, sur le bouton vert avec un tiret pour effectuer un zoom arrière, ou sur les flèches vertes pour les cartes adjacentes.


METAR-TAF: